createdAt,value
2018-06-24T00:01:45.226Z,98803.07
2018-06-24T00:04:17.248Z,98792.75
2018-06-24T00:06:49.532Z,98800.62
2018-06-24T00:09:20.851Z,98796.84
2018-06-24T00:11:51.883Z,98790.84
2018-06-24T00:14:36.032Z,98784.67
2018-06-24T00:17:07.003Z,98787.17
2018-06-24T00:19:54.572Z,98788.10
2018-06-24T00:22:27.463Z,98783.78
2018-06-24T00:25:03.664Z,98785.81
2018-06-24T00:27:34.281Z,98780.03
2018-06-24T00:30:22.048Z,98742.21
2018-06-24T00:38:42.073Z,98776.59
2018-06-24T00:41:14.245Z,98767.13
2018-06-24T00:43:47.603Z,98763.92
2018-06-24T00:46:34.924Z,98761.89
2018-06-24T00:49:05.555Z,98759.37
2018-06-24T00:51:36.776Z,98756.58
2018-06-24T00:54:07.964Z,98751.92
2018-06-24T00:59:48.555Z,98747.58
2018-06-24T01:02:38.798Z,98750.44
2018-06-24T01:07:49.176Z,98755.39
2018-06-24T01:10:21.241Z,98755.39
2018-06-24T01:12:53.704Z,98756.88
2018-06-24T01:15:25.214Z,98752.58
2018-06-24T01:17:56.001Z,98751.17
2018-06-24T01:46:48.370Z,98717.33
2018-06-24T01:49:20.542Z,98711.33
2018-06-24T01:52:06.262Z,98708.81
2018-06-24T01:54:37.520Z,98714.14
2018-06-24T01:57:29.536Z,98708.04
2018-06-24T02:00:06.983Z,98712.27
2018-06-24T02:19:15.039Z,98705.00
2018-06-24T02:21:46.022Z,98700.95
2018-06-24T02:24:19.878Z,98700.92
2018-06-24T02:26:56.858Z,98700.16
2018-06-24T02:29:30.359Z,98700.52
2018-06-24T02:32:03.109Z,98691.86
2018-06-24T02:34:34.460Z,98689.70
2018-06-24T02:41:53.892Z,98690.83
2018-06-24T02:44:46.319Z,98692.09
2018-06-24T02:50:13.382Z,98680.76
2018-06-24T02:52:53.911Z,98682.36
2018-06-24T02:56:48.633Z,98680.52
2018-06-24T02:59:20.392Z,98682.29
2018-06-24T03:01:57.345Z,98678.65
2018-06-24T03:07:54.621Z,98674.77
2018-06-24T03:10:53.131Z,98670.33
2018-06-24T03:13:27.062Z,98673.56
2018-06-24T03:18:50.542Z,98667.68
2018-06-24T03:21:29.864Z,98668.90
2018-06-24T03:27:18.616Z,98681.20
2018-06-24T03:29:54.557Z,98666.19
2018-06-24T03:32:44.674Z,98666.80
2018-06-24T03:35:40.968Z,98673.02
2018-06-24T03:41:17.877Z,98669.21
2018-06-24T03:43:50.808Z,98671.34
2018-06-24T03:49:29.536Z,98670.48
2018-06-24T03:52:01.607Z,98668.05
2018-06-24T03:54:32.018Z,98672.14
2018-06-24T03:57:16.450Z,98665.89
2018-06-24T03:59:51.057Z,98675.57
2018-06-24T04:02:22.969Z,98677.29
2018-06-24T04:04:57.729Z,98667.88
2018-06-24T04:07:58.610Z,98669.83
2018-06-24T04:10:30.460Z,98669.55
2018-06-24T04:14:47.889Z,98669.70
2018-06-24T04:17:28.016Z,98668.33
2018-06-24T04:20:02.892Z,98673.70
2018-06-24T04:22:45.946Z,98672.83
2018-06-24T04:26:03.730Z,98671.73
2018-06-24T04:31:50.382Z,98668.93
2018-06-24T04:34:24.874Z,98673.75
2018-06-24T04:42:05.312Z,98682.28
2018-06-24T04:44:50.893Z,98683.85
2018-06-24T04:53:40.146Z,98675.61
2018-06-24T04:56:23.679Z,98674.70
2018-06-24T04:59:12.477Z,98543.63
2018-06-24T05:01:49.975Z,98671.50
2018-06-24T05:04:24.309Z,98678.05
2018-06-24T05:07:04.376Z,98685.38
2018-06-24T05:12:16.857Z,98680.13
2018-06-24T05:14:47.960Z,98679.11
2018-06-24T05:17:18.056Z,98682.94
2018-06-24T05:22:44.279Z,98679.19
2018-06-24T05:25:14.780Z,98677.66
2018-06-24T05:27:44.771Z,98678.04
2018-06-24T05:30:15.605Z,98678.36
2018-06-24T05:32:46.750Z,98686.42
2018-06-24T05:35:16.981Z,98685.27
2018-06-24T05:37:47.519Z,98680.27
2018-06-24T05:40:19.983Z,98675.92
2018-06-24T05:42:50.242Z,98580.55
2018-06-24T05:45:20.617Z,98675.98
2018-06-24T05:47:50.839Z,98676.48
2018-06-24T05:50:41.519Z,98671.29
2018-06-24T05:55:01.336Z,98675.67
2018-06-24T05:57:32.331Z,98677.61
2018-06-24T06:00:03.134Z,98674.87
2018-06-24T06:02:33.635Z,98679.31
2018-06-24T06:05:03.619Z,98678.09
2018-06-24T06:07:34.983Z,98680.52
2018-06-24T06:10:06.917Z,98678.26
2018-06-24T06:12:36.698Z,98674.19
2018-06-24T06:15:07.238Z,98676.30
2018-06-24T06:20:38.977Z,98682.37
2018-06-24T06:23:21.483Z,98686.36
2018-06-24T06:25:51.563Z,98692.02
2018-06-24T06:28:21.408Z,98692.77
2018-06-24T06:30:51.227Z,98695.32
2018-06-24T06:33:21.308Z,98693.35
2018-06-24T06:35:50.958Z,98688.43
2018-06-24T06:38:21.095Z,98692.31
2018-06-24T06:40:50.988Z,98688.20
2018-06-24T06:49:56.271Z,98686.75
2018-06-24T06:52:43.400Z,98687.27
2018-06-24T06:55:13.319Z,98689.87
2018-06-24T06:57:43.329Z,98687.27
2018-06-24T07:00:13.267Z,98686.53
2018-06-24T07:02:43.186Z,98681.37
2018-06-24T07:05:13.089Z,98679.03
2018-06-24T07:07:42.856Z,98674.48
2018-06-24T07:10:12.671Z,98679.06
2018-06-24T07:12:42.451Z,98675.23
2018-06-24T07:15:16.459Z,98675.47
2018-06-24T07:17:46.238Z,98674.03
2018-06-24T07:20:16.096Z,98671.50
2018-06-24T07:22:45.904Z,98674.02
2018-06-24T07:25:15.772Z,98669.81
2018-06-24T07:27:45.701Z,98671.64
2018-06-24T07:30:16.126Z,98669.84
2018-06-24T07:32:45.976Z,98670.22
2018-06-24T07:35:17.178Z,98666.97
2018-06-24T07:37:47.294Z,98665.77
2018-06-24T07:40:17.975Z,98667.74
2018-06-24T07:42:47.850Z,98665.82
2018-06-24T07:45:17.657Z,98661.34
2018-06-24T07:47:50.318Z,98667.43
2018-06-24T07:50:37.067Z,98663.47
2018-06-24T07:53:06.585Z,98662.48
2018-06-24T07:55:37.297Z,98662.26
2018-06-24T07:58:06.998Z,98665.39
2018-06-24T08:00:37.176Z,98659.06
2018-06-24T08:03:07.370Z,98662.38
2018-06-24T08:05:38.417Z,98661.42
2018-06-24T08:08:09.166Z,98664.57
2018-06-24T08:10:41.217Z,98658.87
2018-06-24T08:13:12.767Z,98659.90
2018-06-24T08:15:42.521Z,98659.77
2018-06-24T08:18:12.927Z,98656.94
2018-06-24T08:20:42.971Z,98652.27
2018-06-24T08:23:14.016Z,98652.69
2018-06-24T08:25:43.980Z,98650.88
2018-06-24T08:28:14.426Z,98651.21
2018-06-24T08:30:44.833Z,98649.77
2018-06-24T08:33:15.278Z,98651.44
2018-06-24T08:35:45.385Z,98646.36
2018-06-24T08:38:15.418Z,98653.22
2018-06-24T08:40:45.543Z,98655.77
2018-06-24T08:43:16.051Z,98653.54
2018-06-24T08:45:45.658Z,98653.91
2018-06-24T08:48:16.744Z,98651.33
2018-06-24T08:50:46.731Z,98657.86
2018-06-24T08:53:16.597Z,98659.72
2018-06-24T08:55:46.623Z,98663.98
2018-06-24T08:58:16.849Z,98661.63
2018-06-24T09:01:01.703Z,98661.67
2018-06-24T09:03:31.633Z,98666.08
2018-06-24T09:07:05.512Z,98663.72
2018-06-24T09:09:35.188Z,98675.66
2018-06-24T09:12:05.813Z,98676.18
2018-06-24T09:14:35.873Z,98667.22
2018-06-24T09:17:05.385Z,98664.38
2018-06-24T09:20:12.427Z,98672.57
2018-06-24T09:22:42.014Z,98667.13
2018-06-24T09:25:11.629Z,98670.20
2018-06-24T09:27:42.394Z,98676.02
2018-06-24T09:30:12.008Z,98662.95
2018-06-24T09:32:41.506Z,98666.20
2018-06-24T09:35:14.873Z,98669.40
2018-06-24T09:37:44.865Z,98665.14
2018-06-24T09:40:14.517Z,98653.11
2018-06-24T09:42:44.406Z,98648.48
2018-06-24T09:45:14.186Z,98655.81
2018-06-24T09:47:43.747Z,98652.84
2018-06-24T09:50:13.847Z,98647.24
2018-06-24T09:53:36.260Z,98651.02
2018-06-24T09:56:06.067Z,98650.06
2018-06-24T09:58:38.013Z,98651.70
2018-06-24T10:01:07.723Z,98655.40
2018-06-24T10:03:37.274Z,98649.69
2018-06-24T10:06:06.981Z,98643.33
2018-06-24T10:08:36.947Z,98641.48
2018-06-24T10:11:07.436Z,98630.83
2018-06-24T10:13:37.293Z,98630.36
2018-06-24T10:16:08.180Z,98633.58
2018-06-24T10:18:37.701Z,98632.89
2018-06-24T10:21:07.854Z,98641.28
2018-06-24T10:23:37.647Z,98638.58
2018-06-24T10:26:07.168Z,98638.93
2018-06-24T10:28:36.651Z,98641.70
2018-06-24T10:31:06.613Z,98636.19
2018-06-24T10:33:36.841Z,98634.94
2018-06-24T10:36:06.457Z,98638.92
2018-06-24T10:38:36.099Z,98630.64
2018-06-24T10:41:06.751Z,98631.49
2018-06-24T10:43:36.299Z,98629.97
2018-06-24T10:46:05.954Z,98623.94
2018-06-24T10:48:35.445Z,98621.55
2018-06-24T10:51:05.125Z,98629.45
2018-06-24T10:53:42.392Z,98623.31
2018-06-24T10:56:12.626Z,98620.42
2018-06-24T10:58:42.420Z,98608.51
2018-06-24T11:01:12.323Z,98626.09
2018-06-24T11:03:41.947Z,98626.80
2018-06-24T11:06:11.976Z,98623.31
2018-06-24T11:08:45.690Z,98609.98
2018-06-24T11:11:15.436Z,98618.59
2018-06-24T11:13:49.330Z,98623.62
2018-06-24T11:16:18.919Z,98624.41
2018-06-24T11:18:48.460Z,98621.41
2018-06-24T11:21:23.071Z,98623.16
2018-06-24T11:23:52.627Z,98617.59
2018-06-24T11:26:22.827Z,98615.03
2018-06-24T11:28:52.834Z,98618.79
2018-06-24T11:31:22.517Z,98622.23
2018-06-24T11:33:52.530Z,98614.47
2018-06-24T11:36:22.151Z,98616.27
2018-06-24T11:38:51.634Z,98608.77
2018-06-24T11:41:21.678Z,98615.20
2018-06-24T11:43:51.273Z,98615.27
2018-06-24T11:46:22.030Z,98616.55
2018-06-24T11:48:55.195Z,98617.91
2018-06-24T11:51:24.833Z,98617.83
2018-06-24T11:53:54.401Z,98618.02
2018-06-24T11:56:24.206Z,98617.99
2018-06-24T11:58:53.814Z,98609.47
2018-06-24T12:01:24.885Z,98608.00
2018-06-24T12:03:57.453Z,98609.11
2018-06-24T12:06:27.858Z,98602.73
2018-06-24T12:08:57.589Z,98614.84
2018-06-24T12:11:27.637Z,98612.18
2018-06-24T12:13:58.629Z,98604.38
2018-06-24T12:16:31.130Z,98600.67
2018-06-24T12:19:02.117Z,98604.74
2018-06-24T12:21:32.349Z,98608.18
2018-06-24T12:24:03.725Z,98611.51
2018-06-24T12:32:04.851Z,98609.59
2018-06-24T12:34:35.003Z,98604.91
2018-06-24T12:37:05.116Z,98598.57
2018-06-24T12:39:35.484Z,98605.94
2018-06-24T12:42:06.015Z,98614.50
2018-06-24T12:44:36.310Z,98610.86
2018-06-24T12:47:07.976Z,98602.89
2018-06-24T12:49:37.958Z,98601.53
2018-06-24T12:52:13.915Z,98601.39
2018-06-24T12:54:43.888Z,98585.52
2018-06-24T12:57:14.642Z,98593.34
2018-06-24T13:00:00.997Z,98588.95
2018-06-24T13:02:31.921Z,98590.81
2018-06-24T13:05:01.572Z,98596.91
2018-06-24T13:07:31.599Z,98593.82
2018-06-24T13:10:02.009Z,98587.09
2018-06-24T13:12:31.913Z,98586.16
2018-06-24T13:15:01.865Z,98579.67
2018-06-24T13:17:33.353Z,98576.66
2018-06-24T13:20:04.512Z,98576.80
2018-06-24T13:22:35.158Z,98574.88
2018-06-24T13:25:05.691Z,98585.58
2018-06-24T13:27:37.004Z,98573.75
2018-06-24T13:30:07.855Z,98574.02
2018-06-24T13:32:42.362Z,98572.10
2018-06-24T13:35:12.242Z,98575.52
2018-06-24T13:37:42.411Z,98571.16
2018-06-24T13:40:12.814Z,98568.97
2018-06-24T13:42:45.055Z,98563.06
2018-06-24T13:45:34.705Z,98571.58
2018-06-24T13:48:05.215Z,98572.77
2018-06-24T13:50:39.542Z,98576.47
2018-06-24T13:53:09.257Z,98572.21
2018-06-24T13:55:39.488Z,98582.09
2018-06-24T13:58:09.038Z,98569.53
2018-06-24T14:00:41.807Z,98564.09
2018-06-24T14:03:15.603Z,98557.66
2018-06-24T14:05:45.822Z,98559.64
2018-06-24T14:08:15.647Z,98553.69
2018-06-24T14:10:45.946Z,98552.12
2018-06-24T14:13:46.717Z,98552.27
2018-06-24T14:16:16.861Z,98549.43
2018-06-24T14:18:47.346Z,98549.81
2018-06-24T14:21:19.190Z,98543.77
2018-06-24T14:23:49.098Z,98555.64
2018-06-24T14:26:18.811Z,98542.73
2018-06-24T14:28:49.758Z,98552.57
2018-06-24T14:31:19.498Z,98548.10
2018-06-24T14:33:49.239Z,98543.09
2018-06-24T14:36:21.417Z,98542.02
2018-06-24T14:38:51.138Z,98541.27
2018-06-24T14:41:21.809Z,98534.94
2018-06-24T14:43:51.985Z,98534.88
2018-06-24T14:46:22.070Z,98538.06
2018-06-24T14:48:52.070Z,98532.28
2018-06-24T14:51:22.167Z,98528.91
2018-06-24T14:53:52.070Z,98527.52
2018-06-24T14:56:22.409Z,98533.05
2018-06-24T14:58:54.055Z,98524.89
2018-06-24T15:01:24.382Z,98524.84
2018-06-24T15:03:54.079Z,98527.00
2018-06-24T15:06:23.817Z,98530.87
2018-06-24T15:08:54.974Z,98526.77
2018-06-24T15:11:27.025Z,98525.66
2018-06-24T15:13:57.139Z,98517.52
2018-06-24T15:16:26.726Z,98518.59
2018-06-24T15:18:56.166Z,98519.03
2018-06-24T15:21:26.517Z,98516.68
2018-06-24T15:23:56.177Z,98517.32
2018-06-24T15:26:25.834Z,98517.86
2018-06-24T15:28:56.168Z,98515.78
2018-06-24T15:31:26.327Z,98512.84
2018-06-24T15:33:56.130Z,98518.52
2018-06-24T15:36:27.400Z,98511.11
2018-06-24T15:38:57.409Z,98510.62
2018-06-24T15:41:27.446Z,98506.21
2018-06-24T15:43:57.115Z,98499.91
2018-06-24T15:46:26.941Z,98499.66
2018-06-24T15:48:56.495Z,98502.23
2018-06-24T15:51:26.523Z,98499.66
2018-06-24T15:53:58.438Z,98507.97
2018-06-24T15:56:30.246Z,98493.45
2018-06-24T15:59:00.004Z,98493.73
2018-06-24T16:01:29.700Z,98492.22
2018-06-24T16:04:02.003Z,98477.91
2018-06-24T16:06:56.494Z,98485.64
2018-06-24T16:09:26.490Z,98484.84
2018-06-24T16:11:58.846Z,98475.30
2018-06-24T16:14:28.370Z,98478.82
2018-06-24T16:16:57.959Z,98477.95
2018-06-24T16:19:27.781Z,98481.59
2018-06-24T16:21:57.705Z,98483.28
2018-06-24T16:24:31.562Z,98484.44
2018-06-24T16:27:16.834Z,98486.97
2018-06-24T16:29:51.101Z,98486.25
2018-06-24T16:32:20.862Z,98487.39
2018-06-24T16:34:50.828Z,98482.30
2018-06-24T16:37:21.098Z,98482.19
2018-06-24T16:39:51.204Z,98480.18
2018-06-24T16:42:43.169Z,98474.13
2018-06-24T16:45:12.999Z,98475.16
2018-06-24T16:47:43.458Z,98467.59
2018-06-24T16:50:13.199Z,98477.17
2018-06-24T16:52:48.837Z,98474.83
2018-06-24T16:55:19.834Z,98471.25
2018-06-24T16:58:00.767Z,98469.27
2018-06-24T17:00:32.272Z,98466.70
2018-06-24T17:03:08.457Z,98473.48
2018-06-24T17:05:38.422Z,98469.56
2018-06-24T17:08:13.902Z,98469.20
2018-06-24T17:10:45.328Z,98468.77
2018-06-24T17:16:01.753Z,98466.75
2018-06-24T17:18:34.030Z,98461.32
2018-06-24T17:21:05.635Z,98467.82
2018-06-24T17:23:37.732Z,98470.88
2018-06-24T17:26:08.052Z,98461.52
2018-06-24T17:28:39.054Z,98471.05
2018-06-24T17:31:11.891Z,98470.44
2018-06-24T17:33:42.087Z,98463.44
2018-06-24T17:36:12.111Z,98471.02
2018-06-24T17:38:42.124Z,98470.23
2018-06-24T17:41:11.771Z,98470.27
2018-06-24T17:43:41.558Z,98468.20
2018-06-24T17:46:11.166Z,98459.38
2018-06-24T17:48:51.317Z,98464.28
2018-06-24T17:51:23.394Z,98458.08
2018-06-24T17:54:06.312Z,98459.91
2018-06-24T17:56:53.890Z,98457.67
2018-06-24T17:59:36.907Z,98454.87
2018-06-24T18:02:06.874Z,98456.72
2018-06-24T18:04:37.149Z,98459.34
2018-06-24T18:08:12.721Z,98454.02
2018-06-24T18:14:22.468Z,98452.98
2018-06-24T18:17:02.326Z,98449.56
2018-06-24T18:19:33.670Z,98449.84
2018-06-24T18:22:06.776Z,98452.83
2018-06-24T18:24:38.860Z,98457.62
2018-06-24T18:27:10.327Z,98456.56
2018-06-24T18:29:41.478Z,98456.58
2018-06-24T18:32:15.333Z,98454.69
2018-06-24T18:34:48.178Z,98456.66
2018-06-24T18:37:19.257Z,98455.41
2018-06-24T18:39:53.136Z,98447.68
2018-06-24T18:42:29.870Z,98455.84
2018-06-24T18:45:04.131Z,98463.08
2018-06-24T18:47:37.009Z,98471.34
2018-06-24T18:50:09.332Z,98465.95
2018-06-24T18:52:59.055Z,98463.38
2018-06-24T18:55:30.267Z,98465.45
2018-06-24T18:58:09.048Z,98474.46
2018-06-24T19:03:18.200Z,98476.45
2018-06-24T19:05:54.082Z,98469.33
2018-06-24T19:08:24.424Z,98470.98
2018-06-24T19:10:55.388Z,98476.50
2018-06-24T19:13:24.924Z,98472.08
2018-06-24T19:15:55.048Z,98472.29
2018-06-24T19:27:23.726Z,98470.15
2018-06-24T19:29:54.255Z,98478.49
2018-06-24T19:32:26.974Z,98466.00
2018-06-24T19:35:02.353Z,98476.86
2018-06-24T19:40:21.202Z,98469.82
2018-06-24T19:42:55.261Z,98480.59
2018-06-24T19:45:43.243Z,98482.45
2018-06-24T19:48:23.155Z,98481.27
2018-06-24T19:50:53.684Z,98486.63
2018-06-24T19:56:51.918Z,98487.65
2018-06-24T19:59:25.344Z,98492.95
2018-06-24T20:02:00.180Z,98494.69
2018-06-24T20:07:21.565Z,98501.09
2018-06-24T20:09:52.846Z,98496.33
2018-06-24T20:12:39.932Z,98502.10
2018-06-24T20:15:12.830Z,98499.60
2018-06-24T20:17:50.346Z,98497.22
2018-06-24T20:20:20.695Z,98501.63
2018-06-24T20:22:51.000Z,98500.92
2018-06-24T20:25:29.783Z,98505.86
2018-06-24T20:28:00.820Z,98500.97
2018-06-24T20:30:30.968Z,98497.81
2018-06-24T20:45:11.719Z,98503.73
2018-06-24T20:47:43.394Z,98506.38
2018-06-24T20:50:13.371Z,98502.41
2018-06-24T20:53:09.753Z,98506.86
2018-06-24T20:55:44.092Z,98509.56
2018-06-24T20:58:14.741Z,98515.82
2018-06-24T21:00:49.567Z,98514.07
2018-06-24T21:03:20.866Z,98516.98
2018-06-24T21:06:07.739Z,98514.81
2018-06-24T21:08:38.301Z,98520.85
2018-06-24T21:11:08.266Z,98520.64
2018-06-24T21:13:40.036Z,98519.41
2018-06-24T21:16:10.345Z,98520.42
2018-06-24T21:18:41.008Z,98521.59
2018-06-24T21:21:11.383Z,98523.65
2018-06-24T21:23:58.094Z,98519.94
2018-06-24T21:26:28.251Z,98524.88
2018-06-24T21:28:59.275Z,98525.09
2018-06-24T21:31:29.196Z,98527.52
2018-06-24T21:33:58.918Z,98525.28
2018-06-24T21:36:29.642Z,98523.73
2018-06-24T21:39:00.647Z,98516.88
2018-06-24T21:41:31.277Z,98522.58
2018-06-24T21:44:01.935Z,98519.39
2018-06-24T21:46:32.568Z,98522.95
2018-06-24T21:49:03.481Z,98516.90
2018-06-24T21:51:34.080Z,98520.53
2018-06-24T21:54:04.052Z,98523.40
2018-06-24T21:56:33.903Z,98520.53
2018-06-24T21:59:03.649Z,98514.17
2018-06-24T22:01:33.372Z,98521.16
2018-06-24T22:04:05.602Z,98523.44
2018-06-24T22:06:35.525Z,98521.67
2018-06-24T22:09:08.153Z,98530.94
2018-06-24T22:11:38.140Z,98525.38
2018-06-24T22:14:08.303Z,98533.47
2018-06-24T22:16:38.075Z,98530.63
2018-06-24T22:19:09.525Z,98526.92
2018-06-24T22:21:39.221Z,98533.31
2018-06-24T22:24:08.957Z,98529.45
2018-06-24T22:26:38.667Z,98524.75
2018-06-24T22:29:12.654Z,98528.13
2018-06-24T22:31:43.155Z,98524.20
2018-06-24T22:34:12.846Z,98533.70
2018-06-24T22:36:43.124Z,98539.22
2018-06-24T22:39:13.450Z,98542.70
2018-06-24T22:41:45.287Z,98538.63
2018-06-24T22:45:58.646Z,98538.30
2018-06-24T22:48:29.307Z,98540.73
2018-06-24T22:51:00.159Z,98538.20
2018-06-24T22:56:43.399Z,98547.84
2018-06-24T22:59:24.108Z,98546.86
2018-06-24T23:01:54.251Z,98547.34
2018-06-24T23:07:36.167Z,98554.36
2018-06-24T23:10:06.319Z,98560.02
2018-06-24T23:12:39.347Z,98556.39
2018-06-24T23:15:12.725Z,98556.30
2018-06-24T23:17:55.133Z,98559.19
2018-06-24T23:20:25.149Z,98562.42
2018-06-24T23:22:55.369Z,98563.65
2018-06-24T23:28:29.874Z,98567.84
2018-06-24T23:31:00.611Z,98564.50
2018-06-24T23:33:31.439Z,98564.11
